Time;durP1;ratioP1;P1;durP2;ratioP2;P2;SDS_P1;SDS_P2;PMS_P1;PMS_P2;Temp;Humidity;BMP_temperature;BMP_pressure;BME280_temperature;BME280_humidity;BME280_pressure;Samples;Min_cycle;Max_cycle;Signal;HPM_P1;HPM_P2
2022/03/31 00:00:58;;;;;;;45.35;7.28;;;14.00;99.90;;;;;;5042136;28;20048;-87
2022/03/31 00:03:25;;;;;;;36.20;7.35;;;14.10;99.90;;;;;;5041895;28;20032;-87
2022/03/31 00:05:51;;;;;;;41.63;8.77;;;14.10;99.90;;;;;;5058457;28;20060;-87
2022/03/31 00:08:20;;;;;;;53.20;9.30;;;14.10;99.90;;;;;;5058420;28;20021;-87
2022/03/31 00:10:53;;;;;;;33.88;7.53;;;14.10;99.90;;;;;;5059154;28;20501;-88
2022/03/31 00:13:24;;;;;;;39.88;8.27;;;14.10;99.90;;;;;;5058372;28;20082;-87
2022/03/31 00:15:54;;;;;;;39.33;6.47;;;14.20;99.90;;;;;;5041971;28;20497;-88
2022/03/31 00:18:21;;;;;;;34.72;8.07;;;14.10;99.90;;;;;;5058363;28;20024;-87
2022/03/31 00:20:49;;;;;;;48.63;9.23;;;14.00;99.90;;;;;;5058153;28;20051;-87
2022/03/31 00:23:16;;;;;;;49.28;9.73;;;14.00;99.90;;;;;;5058278;28;20122;-87
2022/03/31 00:25:43;;;;;;;47.05;7.35;;;14.20;99.90;;;;;;5058196;28;20052;-87
2022/03/31 00:28:09;;;;;;;52.53;10.25;;;14.00;99.90;;;;;;5058046;28;20032;-87
2022/03/31 00:30:37;;;;;;;43.85;8.57;;;14.10;99.90;;;;;;5042684;28;20469;-87
2022/03/31 00:33:03;;;;;;;31.75;8.75;;;14.10;99.90;;;;;;5058561;28;20028;-87
2022/03/31 00:35:30;;;;;;;34.00;8.07;;;14.00;99.90;;;;;;5041489;28;20028;-88
2022/03/31 00:37:57;;;;;;;25.80;6.80;;;14.10;99.90;;;;;;5041380;28;20040;-88
2022/03/31 00:40:25;;;;;;;39.00;9.07;;;14.10;99.90;;;;;;5057938;28;20470;-88
2022/03/31 00:42:55;;;;;;;30.77;8.50;;;13.90;99.90;;;;;;5057862;28;20024;-87
2022/03/31 00:45:25;;;;;;;42.95;8.32;;;13.90;99.90;;;;;;5057663;28;20398;-89
2022/03/31 00:47:54;;;;;;;32.22;7.47;;;14.00;99.90;;;;;;5041292;28;20063;-88
2022/03/31 00:50:22;;;;;;;35.17;7.60;;;14.00;99.90;;;;;;5057563;28;20051;-87
2022/03/31 00:52:49;;;;;;;57.75;9.48;;;14.10;99.90;;;;;;5057800;28;20024;-87
2022/03/31 00:55:19;;;;;;;31.52;7.70;;;14.00;99.90;;;;;;5057690;28;20111;-87
2022/03/31 00:57:55;;;;;;;32.10;9.10;;;14.10;99.90;;;;;;5057598;28;20020;-88
2022/03/31 01:00:22;;;;;;;39.97;8.07;;;14.00;99.90;;;;;;5057841;28;20158;-88
2022/03/31 01:02:50;;;;;;;30.65;7.25;;;13.90;99.90;;;;;;5057283;28;20032;-87
2022/03/31 01:05:16;;;;;;;34.72;8.10;;;14.10;99.90;;;;;;5057408;28;20025;-87
2022/03/31 01:07:44;;;;;;;28.13;7.85;;;13.90;99.90;;;;;;5056416;28;20033;-88
2022/03/31 01:10:13;;;;;;;41.78;8.55;;;13.90;99.90;;;;;;5057292;28;20024;-87
2022/03/31 01:12:41;;;;;;;43.67;8.07;;;13.90;99.90;;;;;;5057908;28;20055;-86
2022/03/31 01:15:17;;;;;;;33.42;7.25;;;14.10;99.90;;;;;;5057644;28;20099;-87
2022/03/31 01:17:47;;;;;;;34.00;7.82;;;14.10;99.90;;;;;;5041236;28;20466;-87
2022/03/31 01:20:17;;;;;;;41.70;9.20;;;14.00;99.90;;;;;;5057763;28;20090;-87
2022/03/31 01:22:45;;;;;;;33.67;7.95;;;14.10;99.90;;;;;;5037067;28;21361;-86
2022/03/31 01:25:13;;;;;;;27.60;7.88;;;14.00;99.90;;;;;;5037264;28;20115;-86
2022/03/31 01:27:43;;;;;;;34.15;8.10;;;14.00;99.90;;;;;;5037165;28;20112;-87
2022/03/31 01:30:14;;;;;;;34.00;9.25;;;14.10;99.90;;;;;;5037214;28;20040;-87
2022/03/31 01:32:43;;;;;;;41.72;9.98;;;14.00;99.90;;;;;;5037039;28;20401;-86
2022/03/31 01:35:10;;;;;;;33.20;6.45;;;14.00;99.90;;;;;;5037037;28;20025;-88
2022/03/31 01:37:37;;;;;;;26.80;8.05;;;14.00;99.90;;;;;;5037008;28;20029;-87
2022/03/31 01:40:06;;;;;;;26.50;7.82;;;14.00;99.90;;;;;;5036850;28;20026;-87
2022/03/31 01:42:34;;;;;;;41.83;7.55;;;13.90;99.90;;;;;;5036828;28;20470;-87
2022/03/31 01:45:01;;;;;;;38.38;8.90;;;13.90;99.90;;;;;;5036524;28;20478;-87
2022/03/31 01:47:28;;;;;;;44.15;10.07;;;13.90;99.90;;;;;;5036854;28;20112;-88
2022/03/31 01:49:54;;;;;;;38.72;8.00;;;13.90;99.90;;;;;;5020267;28;20053;-87
2022/03/31 01:52:22;;;;;;;52.35;10.13;;;13.90;99.90;;;;;;5037341;28;20537;-86
2022/03/31 01:54:49;;;;;;;64.65;9.32;;;14.00;99.90;;;;;;5036744;28;20102;-87
2022/03/31 01:57:16;;;;;;;49.22;10.32;;;14.10;99.90;;;;;;5036619;28;20062;-86
2022/03/31 01:59:43;;;;;;;39.22;8.50;;;14.00;99.90;;;;;;5036455;28;20021;-87
2022/03/31 02:02:13;;;;;;;41.83;7.57;;;13.90;99.90;;;;;;5037181;28;20033;-87
2022/03/31 02:04:41;;;;;;;30.27;8.50;;;14.00;99.90;;;;;;5036407;28;20041;-86
2022/03/31 02:07:08;;;;;;;38.50;7.43;;;14.10;99.90;;;;;;5037209;28;20549;-87
2022/03/31 02:09:36;;;;;;;41.38;7.95;;;14.10;99.90;;;;;;5036868;28;20067;-86
2022/03/31 02:12:03;;;;;;;42.03;9.60;;;14.10;99.90;;;;;;5037645;28;20032;-87
2022/03/31 02:14:30;;;;;;;35.97;8.52;;;14.10;99.90;;;;;;5036426;28;20064;-86
2022/03/31 02:16:58;;;;;;;29.75;8.95;;;14.00;99.90;;;;;;5036836;28;20551;-87
2022/03/31 02:19:26;;;;;;;34.05;8.90;;;13.90;99.90;;;;;;5019682;28;20033;-87
2022/03/31 02:21:55;;;;;;;40.05;8.35;;;14.00;99.90;;;;;;5036400;28;20017;-87
2022/03/31 02:24:22;;;;;;;47.65;8.63;;;14.10;99.90;;;;;;5053207;28;20067;-87
2022/03/31 02:26:51;;;;;;;51.00;8.43;;;14.00;99.90;;;;;;5039378;28;20052;-87
2022/03/31 02:29:19;;;;;;;36.35;9.60;;;14.00;99.90;;;;;;5039663;28;20402;-87
2022/03/31 02:31:46;;;;;;;41.95;9.32;;;14.10;99.90;;;;;;5039472;28;20021;-87
2022/03/31 02:34:14;;;;;;;57.92;9.13;;;14.00;99.90;;;;;;5056216;28;20059;-87
2022/03/31 02:36:42;;;;;;;43.33;11.38;;;14.20;99.90;;;;;;5039669;28;20066;-87
2022/03/31 02:39:10;;;;;;;59.72;11.30;;;14.10;99.90;;;;;;5056163;28;20033;-87
2022/03/31 02:41:38;;;;;;;30.40;6.97;;;14.00;99.90;;;;;;5056828;28;20416;-87
2022/03/31 02:44:05;;;;;;;51.67;8.93;;;14.20;99.90;;;;;;5055965;28;20047;-87
2022/03/31 02:46:34;;;;;;;35.42;9.10;;;14.00;99.90;;;;;;5039426;28;20478;-86
2022/03/31 02:49:02;;;;;;;51.92;9.77;;;14.00;99.90;;;;;;5055909;28;20087;-87
2022/03/31 02:51:28;;;;;;;37.25;9.07;;;14.10;99.90;;;;;;5056419;28;20020;-88
2022/03/31 02:56:40;;;;;;;45.70;9.68;;;14.10;99.90;;;;;;5056601;28;20020;-87
2022/03/31 02:59:09;;;;;;;39.45;7.68;;;14.00;99.90;;;;;;5039481;28;20112;-87
2022/03/31 03:01:37;;;;;;;59.15;9.00;;;14.00;99.90;;;;;;5037569;28;20110;-88
2022/03/31 03:04:07;;;;;;;43.05;8.43;;;14.10;99.90;;;;;;5050892;28;20036;-87
2022/03/31 03:06:35;;;;;;;57.35;9.85;;;14.10;99.90;;;;;;5039315;28;20474;-87
2022/03/31 03:09:01;;;;;;;44.90;8.07;;;14.10;99.90;;;;;;5055772;28;20111;-87
2022/03/31 03:11:28;;;;;;;42.03;9.38;;;14.00;99.90;;;;;;5055687;28;20020;-87
2022/03/31 03:13:55;;;;;;;39.55;9.15;;;14.10;99.90;;;;;;5055684;28;20123;-87
2022/03/31 03:16:24;;;;;;;33.75;7.18;;;14.00;99.90;;;;;;5055876;28;20043;-86
2022/03/31 03:18:55;;;;;;;52.80;9.20;;;14.00;99.90;;;;;;5055799;28;20033;-87
2022/03/31 03:21:22;;;;;;;43.00;9.63;;;14.00;99.90;;;;;;5055533;28;20035;-87
2022/03/31 03:23:48;;;;;;;39.22;8.10;;;14.00;99.90;;;;;;5055077;28;20516;-87
2022/03/31 03:26:15;;;;;;;43.17;6.80;;;14.10;99.90;;;;;;5055529;28;20115;-87
2022/03/31 03:28:41;;;;;;;25.10;7.22;;;14.00;99.90;;;;;;5055475;28;20434;-87
2022/03/31 03:31:08;;;;;;;26.42;5.97;;;13.90;99.90;;;;;;5040856;28;20496;-87
2022/03/31 03:33:35;;;;;;;28.05;6.05;;;14.00;99.90;;;;;;5059020;28;20082;-87
2022/03/31 03:36:06;;;;;;;27.63;7.63;;;14.00;99.90;;;;;;5042647;28;20112;-87
2022/03/31 03:38:33;;;;;;;35.95;8.38;;;13.80;99.90;;;;;;5059191;28;20055;-87
2022/03/31 03:41:00;;;;;;;43.05;7.72;;;14.00;99.90;;;;;;5059058;28;20029;-87
2022/03/31 03:43:26;;;;;;;50.92;8.55;;;13.80;99.90;;;;;;5059441;28;20378;-87
2022/03/31 03:45:53;;;;;;;33.50;8.25;;;13.80;99.90;;;;;;5042405;28;20021;-86
2022/03/31 03:48:21;;;;;;;42.97;7.60;;;13.80;99.90;;;;;;5059472;28;20051;-87
2022/03/31 03:50:49;;;;;;;50.35;8.23;;;14.00;99.90;;;;;;5043089;28;20066;-87
2022/03/31 03:53:16;;;;;;;42.60;7.55;;;13.90;99.90;;;;;;5059083;28;20127;-86
2022/03/31 03:55:42;;;;;;;34.65;7.35;;;13.90;99.90;;;;;;5058812;28;20031;-88
2022/03/31 03:58:08;;;;;;;45.70;8.45;;;13.90;99.90;;;;;;5058840;28;20501;-87
2022/03/31 04:00:35;;;;;;;37.25;8.73;;;14.00;99.90;;;;;;5042113;28;20029;-86
2022/03/31 04:03:02;;;;;;;44.58;8.20;;;14.00;99.90;;;;;;5058422;28;20489;-87
2022/03/31 04:05:28;;;;;;;51.03;10.13;;;14.00;99.90;;;;;;5041895;28;20043;-86
2022/03/31 04:07:55;;;;;;;71.40;8.55;;;14.00;99.90;;;;;;5058550;28;20495;-85
2022/03/31 04:10:21;;;;;;;39.00;8.20;;;14.00;99.90;;;;;;5058332;28;20056;-84
2022/03/31 04:12:49;;;;;;;37.53;9.32;;;14.10;99.90;;;;;;5058341;28;20386;-85
2022/03/31 04:15:15;;;;;;;47.65;8.73;;;14.00;99.90;;;;;;5041715;28;20095;-85
2022/03/31 04:17:43;;;;;;;41.15;7.55;;;14.10;99.90;;;;;;5058485;28;20058;-85
2022/03/31 04:20:11;;;;;;;41.47;7.32;;;14.00;99.90;;;;;;5058343;28;20035;-84
2022/03/31 04:22:38;;;;;;;43.20;9.23;;;14.10;99.90;;;;;;5057830;28;20049;-84
2022/03/31 04:25:11;;;;;;;28.98;7.85;;;14.00;99.90;;;;;;5058220;28;20123;-87
2022/03/31 04:27:39;;;;;;;35.58;9.18;;;14.00;99.90;;;;;;5058160;28;20029;-85
2022/03/31 04:30:09;;;;;;;42.22;8.52;;;14.00;99.90;;;;;;5041622;28;20025;-87
2022/03/31 04:32:37;;;;;;;39.05;9.07;;;14.00;99.90;;;;;;5058765;28;20028;-85
2022/03/31 04:35:06;;;;;;;41.50;7.80;;;14.10;99.90;;;;;;5041334;28;20512;-86
2022/03/31 04:37:34;;;;;;;40.28;8.00;;;14.00;99.90;;;;;;5058598;28;20032;-85
2022/03/31 04:40:05;;;;;;;32.97;6.40;;;14.00;99.90;;;;;;5041939;28;20031;-85
2022/03/31 04:42:32;;;;;;;24.02;7.57;;;14.00;99.90;;;;;;5058856;28;20032;-86
2022/03/31 04:44:59;;;;;;;47.67;8.30;;;14.00;99.90;;;;;;5041157;28;20037;-85
2022/03/31 04:47:26;;;;;;;32.75;8.13;;;14.00;99.90;;;;;;5057852;28;20024;-85
2022/03/31 04:49:52;;;;;;;37.72;8.85;;;14.10;99.90;;;;;;5057619;28;20111;-86
2022/03/31 04:52:19;;;;;;;48.90;9.57;;;14.00;99.90;;;;;;5041103;28;20020;-85
2022/03/31 04:54:46;;;;;;;45.03;7.38;;;14.10;99.90;;;;;;5040907;28;20024;-85
2022/03/31 04:57:15;;;;;;;37.13;8.43;;;14.10;99.90;;;;;;5057835;28;20545;-86
2022/03/31 04:59:42;;;;;;;40.45;8.00;;;14.20;99.90;;;;;;5041087;28;20032;-85
2022/03/31 05:02:11;;;;;;;31.73;7.82;;;14.10;99.90;;;;;;5040966;28;20588;-85
2022/03/31 05:04:38;;;;;;;48.67;9.32;;;14.10;99.90;;;;;;5040687;28;20066;-86
2022/03/31 05:07:04;;;;;;;41.17;7.47;;;14.10;99.90;;;;;;5040869;28;20394;-85
2022/03/31 05:09:31;;;;;;;33.67;6.95;;;14.10;99.90;;;;;;5055145;28;20042;-85
2022/03/31 05:11:58;;;;;;;43.95;9.30;;;14.20;99.90;;;;;;5035257;28;20054;-85
2022/03/31 05:14:24;;;;;;;45.78;7.03;;;14.20;99.90;;;;;;5040671;28;20024;-86
2022/03/31 05:16:52;;;;;;;53.67;7.10;;;14.20;99.90;;;;;;5057244;28;20025;-85
2022/03/31 05:19:19;;;;;;;28.17;8.40;;;14.20;99.90;;;;;;5040705;28;20060;-85
2022/03/31 05:21:45;;;;;;;66.82;10.45;;;14.20;99.90;;;;;;5057723;28;20028;-85
2022/03/31 05:24:12;;;;;;;31.25;7.57;;;14.20;99.90;;;;;;5056595;28;20114;-85
2022/03/31 05:26:39;;;;;;;49.88;9.30;;;14.10;99.90;;;;;;5057581;28;20032;-86
2022/03/31 05:29:06;;;;;;;50.70;8.68;;;14.10;99.90;;;;;;5040984;28;20024;-85
2022/03/31 05:31:32;;;;;;;37.08;7.63;;;14.20;99.90;;;;;;5057890;28;20051;-85
2022/03/31 05:33:59;;;;;;;29.50;7.45;;;14.20;99.90;;;;;;5040274;28;20129;-86
2022/03/31 05:36:25;;;;;;;47.15;7.78;;;14.20;99.90;;;;;;5040051;28;20025;-88
2022/03/31 05:38:56;;;;;;;49.38;8.32;;;14.20;99.90;;;;;;5056945;28;20029;-85
2022/03/31 05:41:23;;;;;;;32.85;6.65;;;14.20;99.90;;;;;;5056597;28;20464;-85
2022/03/31 05:43:50;;;;;;;50.85;8.00;;;14.20;99.90;;;;;;5056556;28;20032;-85
2022/03/31 05:46:17;;;;;;;48.10;9.35;;;14.20;99.90;;;;;;5056449;28;20438;-82
2022/03/31 05:48:43;;;;;;;49.15;9.90;;;14.20;99.90;;;;;;5039834;28;20031;-86
2022/03/31 05:51:10;;;;;;;65.32;9.18;;;14.20;99.90;;;;;;5052981;28;20045;-84
2022/03/31 05:53:36;;;;;;;44.05;10.05;;;14.20;99.90;;;;;;5034964;28;20557;-81
2022/03/31 05:56:03;;;;;;;47.65;8.57;;;14.20;99.90;;;;;;5051544;28;20128;-81
2022/03/31 05:58:30;;;;;;;37.92;8.38;;;14.30;99.90;;;;;;5051729;28;20021;-82
2022/03/31 06:00:57;;;;;;;35.58;8.13;;;14.30;99.90;;;;;;5036118;28;20487;-81
2022/03/31 06:03:24;;;;;;;36.85;7.50;;;14.20;99.90;;;;;;5051580;28;20103;-81
2022/03/31 06:05:51;;;;;;;33.92;5.82;;;14.30;99.90;;;;;;5051643;28;20113;-82
2022/03/31 06:08:19;;;;;;;38.38;9.40;;;14.30;99.90;;;;;;5051728;28;20037;-82
2022/03/31 06:10:46;;;;;;;33.40;5.88;;;14.30;99.90;;;;;;5035707;28;20072;-82
2022/03/31 06:13:14;;;;;;;43.55;8.25;;;14.30;99.90;;;;;;5034922;28;20025;-82
2022/03/31 06:15:40;;;;;;;44.08;7.72;;;14.30;99.90;;;;;;5051595;28;20048;-82
2022/03/31 06:18:07;;;;;;;41.03;6.80;;;14.30;99.90;;;;;;5052079;28;20059;-84
2022/03/31 06:20:35;;;;;;;39.08;7.75;;;14.30;99.90;;;;;;5019382;28;20462;-82
2022/03/31 06:23:03;;;;;;;30.13;6.85;;;14.20;99.90;;;;;;5034959;28;20099;-82
2022/03/31 06:25:30;;;;;;;39.35;6.88;;;14.20;99.90;;;;;;5051318;28;20060;-82
2022/03/31 06:27:57;;;;;;;36.47;7.53;;;14.10;99.90;;;;;;5038156;28;20032;-82
2022/03/31 06:30:24;;;;;;;47.65;7.00;;;14.00;99.90;;;;;;5055731;28;20029;-81
2022/03/31 06:32:51;;;;;;;32.85;6.20;;;14.00;99.90;;;;;;5055471;28;20028;-82
2022/03/31 06:35:18;;;;;;;32.55;6.85;;;13.90;99.90;;;;;;5039000;28;20033;-82
2022/03/31 06:37:46;;;;;;;32.42;8.60;;;14.00;99.90;;;;;;5055369;28;20024;-83
2022/03/31 06:40:14;;;;;;;45.35;7.00;;;14.00;99.90;;;;;;5055512;28;20025;-82
2022/03/31 06:42:42;;;;;;;42.22;7.70;;;13.90;99.90;;;;;;5038776;28;20103;-82
2022/03/31 06:45:19;;;;;;;31.52;6.07;;;13.90;99.90;;;;;;5055444;28;20046;-82
2022/03/31 06:47:45;;;;;;;24.65;7.35;;;13.90;99.90;;;;;;5073561;28;20021;-85
2022/03/31 06:50:13;;;;;;;34.83;8.23;;;13.90;99.90;;;;;;5055692;28;20112;-82
2022/03/31 06:52:40;;;;;;;47.25;8.50;;;14.00;99.90;;;;;;5073345;28;20557;-83
2022/03/31 06:55:07;;;;;;;36.88;7.78;;;14.00;99.90;;;;;;5055456;28;20389;-82
2022/03/31 06:57:34;;;;;;;50.35;8.82;;;14.00;99.90;;;;;;5055696;28;20024;-83
2022/03/31 07:00:02;;;;;;;62.42;7.95;;;14.00;99.90;;;;;;5055615;28;20107;-82
2022/03/31 07:02:29;;;;;;;46.40;9.15;;;14.10;99.90;;;;;;5055118;28;20031;-82
2022/03/31 07:04:56;;;;;;;48.75;8.10;;;14.10;99.90;;;;;;5038638;28;20115;-83
2022/03/31 07:07:24;;;;;;;59.35;7.88;;;14.20;99.90;;;;;;5059504;28;20355;-82
2022/03/31 07:09:52;;;;;;;61.03;10.23;;;14.20;99.90;;;;;;5060353;28;20028;-82
2022/03/31 07:12:19;;;;;;;39.75;7.60;;;14.20;99.90;;;;;;5059667;28;20029;-82
2022/03/31 07:14:46;;;;;;;39.50;9.65;;;14.20;99.90;;;;;;5059477;28;20090;-82
2022/03/31 07:17:13;;;;;;;39.75;8.55;;;14.30;99.90;;;;;;5059167;28;20543;-82
2022/03/31 07:19:40;;;;;;;54.38;8.23;;;14.30;99.90;;;;;;5042451;28;20029;-82
2022/03/31 07:22:07;;;;;;;48.97;8.40;;;14.30;99.90;;;;;;5042647;28;20032;-83
2022/03/31 07:24:34;;;;;;;36.20;8.80;;;14.30;99.90;;;;;;5058860;28;20131;-83
2022/03/31 07:27:04;;;;;;;44.20;9.25;;;14.40;99.90;;;;;;5059133;28;20028;-83
2022/03/31 07:29:31;;;;;;;37.75;7.97;;;14.40;99.90;;;;;;5042511;28;20039;-82
2022/03/31 07:31:58;;;;;;;54.63;8.57;;;14.40;99.90;;;;;;5058720;28;20029;-82
2022/03/31 07:34:24;;;;;;;40.15;7.40;;;14.40;99.90;;;;;;5042072;28;20031;-82
2022/03/31 07:36:53;;;;;;;46.40;7.90;;;14.40;99.90;;;;;;5058718;28;20028;-82
2022/03/31 07:39:20;;;;;;;60.42;9.05;;;14.50;99.90;;;;;;5042487;28;20612;-82
2022/03/31 07:41:47;;;;;;;50.40;7.35;;;14.50;99.90;;;;;;5058566;28;20082;-81
2022/03/31 07:44:14;;;;;;;46.78;9.00;;;14.60;99.90;;;;;;5041876;28;20048;-82
2022/03/31 07:46:40;;;;;;;50.88;7.88;;;14.60;99.90;;;;;;5042107;28;20059;-83
2022/03/31 07:49:07;;;;;;;75.07;8.68;;;14.60;99.90;;;;;;5069400;28;20021;-82
2022/03/31 07:51:34;;;;;;;62.85;7.95;;;14.60;99.90;;;;;;5074697;28;20478;-81
2022/03/31 07:54:02;;;;;;;47.50;8.48;;;14.70;99.90;;;;;;5041561;28;20474;-80
2022/03/31 07:56:29;;;;;;;37.72;7.95;;;14.60;99.90;;;;;;5068412;28;20021;-82
2022/03/31 07:58:56;;;;;;;22.88;6.85;;;14.60;99.90;;;;;;5042374;28;20039;-81
2022/03/31 08:01:23;;;;;;;55.10;8.13;;;14.60;99.90;;;;;;5041891;28;20566;-82
2022/03/31 08:03:52;;;;;;;35.33;6.80;;;14.50;99.90;;;;;;5058319;28;20043;-82
2022/03/31 08:06:21;;;;;;;50.28;10.27;;;14.60;99.90;;;;;;5057884;28;20082;-81
2022/03/31 08:08:50;;;;;;;50.65;7.82;;;14.60;99.90;;;;;;5057950;28;20025;-82
2022/03/31 08:11:17;;;;;;;49.53;8.75;;;14.60;99.90;;;;;;5057828;28;20039;-80
2022/03/31 08:13:44;;;;;;;40.90;6.22;;;14.60;99.90;;;;;;5075582;28;20017;-80
2022/03/31 08:16:10;;;;;;;35.95;8.13;;;14.60;99.90;;;;;;5075193;28;20021;-80
2022/03/31 08:18:37;;;;;;;53.67;8.27;;;14.60;99.90;;;;;;5075602;28;20537;-80
2022/03/31 08:21:08;;;;;;;43.58;10.80;;;14.60;99.90;;;;;;5057543;28;20100;-81
2022/03/31 08:23:35;;;;;;;55.58;7.75;;;14.70;99.90;;;;;;5057099;28;20040;-81
2022/03/31 08:26:02;;;;;;;47.55;7.22;;;14.80;99.90;;;;;;5057355;28;20077;-81
2022/03/31 08:28:31;;;;;;;47.88;8.07;;;14.80;99.90;;;;;;5057781;28;20119;-82
2022/03/31 08:30:58;;;;;;;37.83;5.88;;;14.90;99.90;;;;;;5057375;28;20032;-81
2022/03/31 08:33:28;;;;;;;32.20;6.88;;;15.00;99.90;;;;;;5075273;28;20587;-82
2022/03/31 08:35:55;;;;;;;52.75;8.57;;;15.00;99.90;;;;;;5057119;28;20113;-82
2022/03/31 08:38:22;;;;;;;58.60;8.55;;;15.10;99.90;;;;;;5074501;28;20032;-81
2022/03/31 08:40:49;;;;;;;32.03;8.23;;;15.10;99.90;;;;;;5057812;28;20390;-82
2022/03/31 08:43:17;;;;;;;35.88;6.28;;;15.10;99.90;;;;;;5057305;28;20024;-84
2022/03/31 08:45:54;;;;;;;39.75;8.07;;;15.10;99.90;;;;;;5058438;28;20036;-84
2022/03/31 08:48:26;;;;;;;35.17;8.25;;;15.10;99.90;;;;;;5058433;28;20048;-82
2022/03/31 08:50:53;;;;;;;43.85;7.38;;;15.20;99.90;;;;;;5074499;28;20064;-81
2022/03/31 08:53:20;;;;;;;31.17;7.90;;;15.30;99.90;;;;;;5040698;28;20029;-83
2022/03/31 08:55:47;;;;;;;52.92;7.00;;;15.30;99.90;;;;;;5040404;28;20500;-81
2022/03/31 08:58:13;;;;;;;39.63;6.25;;;15.30;99.90;;;;;;5074751;28;20021;-81
2022/03/31 09:00:41;;;;;;;51.67;8.38;;;15.30;99.90;;;;;;5057142;28;20024;-81
2022/03/31 09:03:09;;;;;;;43.38;7.60;;;15.40;99.90;;;;;;5056588;28;20028;-82
2022/03/31 09:05:52;;;;;;;48.05;8.75;;;15.50;99.90;;;;;;5056866;28;20058;-84
2022/03/31 09:08:20;;;;;;;41.33;7.43;;;15.40;99.90;;;;;;5057305;28;20497;-83
2022/03/31 09:10:54;;;;;;;33.55;6.88;;;15.40;99.90;;;;;;5040397;28;20028;-82
2022/03/31 09:13:43;;;;;;;34.45;6.88;;;15.40;99.90;;;;;;5056821;28;20028;-84
2022/03/31 09:16:11;;;;;;;39.65;6.75;;;15.50;99.90;;;;;;5057320;28;20081;-85
2022/03/31 09:18:41;;;;;;;47.17;8.23;;;15.50;99.90;;;;;;5057616;28;20477;-81
2022/03/31 09:21:11;;;;;;;44.63;8.45;;;15.60;99.90;;;;;;5056668;28;20024;-81
2022/03/31 09:23:47;;;;;;;45.47;9.48;;;15.60;99.90;;;;;;5074082;28;20048;-81
2022/03/31 09:26:16;;;;;;;47.22;6.78;;;15.60;99.90;;;;;;5056418;28;20078;-81
2022/03/31 09:28:45;;;;;;;46.50;8.10;;;15.70;99.90;;;;;;5073489;28;20047;-81
2022/03/31 09:31:13;;;;;;;57.40;12.07;;;15.70;99.90;;;;;;5056739;28;20386;-81
2022/03/31 09:33:44;;;;;;;44.33;8.45;;;15.70;99.90;;;;;;5055661;28;20032;-81
2022/03/31 09:36:16;;;;;;;38.22;7.38;;;15.60;99.90;;;;;;5038151;28;20500;-83
2022/03/31 09:38:54;;;;;;;41.47;8.13;;;15.50;99.90;;;;;;5056513;28;20025;-85
2022/03/31 09:41:28;;;;;;;52.05;9.23;;;15.50;99.90;;;;;;5040504;28;20505;-83
2022/03/31 09:44:03;;;;;;;45.65;9.90;;;15.50;99.90;;;;;;5039675;28;20045;-83
2022/03/31 09:46:34;;;;;;;40.70;7.85;;;15.30;99.90;;;;;;5039660;28;20494;-82
2022/03/31 09:49:28;;;;;;;43.05;7.28;;;15.10;99.90;;;;;;5029253;28;20056;-82
2022/03/31 09:55:44;;;;;;;53.35;7.25;;;15.00;99.90;;;;;;5186166;22;20063;-93
2022/03/31 09:58:41;;;;;;;40.13;8.30;;;14.90;99.90;;;;;;5182070;22;20020;-92
2022/03/31 10:01:47;;;;;;;51.83;7.85;;;14.80;99.90;;;;;;5081254;28;20035;-93
2022/03/31 10:10:46;;;;;;;42.05;9.45;;;14.80;99.90;;;;;;4954729;29;20126;-91
2022/03/31 10:13:28;;;;;;;38.30;7.55;;;14.80;99.90;;;;;;4941687;28;20117;-92
2022/03/31 10:16:09;;;;;;;39.30;8.70;;;14.80;99.90;;;;;;4973886;28;20035;-94
2022/03/31 10:18:40;;;;;;;38.30;8.45;;;14.70;99.90;;;;;;4973660;28;20139;-91
2022/03/31 10:21:10;;;;;;;37.35;7.88;;;14.70;99.90;;;;;;4957878;28;20039;-92
2022/03/31 10:26:28;;;;;;;51.83;12.25;;;14.80;99.90;;;;;;4963227;28;20105;-92
2022/03/31 10:29:02;;;;;;;62.72;10.73;;;14.70;99.90;;;;;;4957383;28;20129;-90
2022/03/31 10:31:39;;;;;;;39.33;7.85;;;14.70;99.90;;;;;;4957552;28;20062;-91
2022/03/31 10:34:07;;;;;;;53.20;10.15;;;14.80;99.90;;;;;;4957528;28;20524;-93
2022/03/31 10:36:48;;;;;;;55.83;8.93;;;14.80;99.90;;;;;;4957416;28;20062;-92
2022/03/31 10:39:21;;;;;;;48.15;9.32;;;14.90;99.90;;;;;;4957507;28;20509;-90
2022/03/31 10:42:09;;;;;;;48.53;11.75;;;14.80;99.90;;;;;;4961526;28;20432;-93
2022/03/31 10:44:36;;;;;;;69.93;10.75;;;15.00;99.90;;;;;;4945598;28;20043;-91
2022/03/31 10:47:09;;;;;;;48.53;7.78;;;15.10;99.90;;;;;;4974155;28;20502;-92
2022/03/31 10:49:38;;;;;;;51.30;8.00;;;15.20;99.90;;;;;;5001022;28;20034;-93
2022/03/31 10:52:16;;;;;;;48.50;8.75;;;15.30;99.90;;;;;;5000873;28;20022;-92
2022/03/31 10:54:43;;;;;;;41.13;8.63;;;15.40;99.90;;;;;;5001426;28;20387;-91
2022/03/31 10:57:15;;;;;;;50.65;9.90;;;15.50;99.90;;;;;;5001183;28;20026;-90
2022/03/31 10:59:47;;;;;;;52.28;9.23;;;15.50;99.90;;;;;;5000865;28;20113;-91
2022/03/31 11:02:21;;;;;;;58.95;8.32;;;15.60;99.90;;;;;;5000598;28;20026;-92
2022/03/31 11:04:58;;;;;;;52.20;9.35;;;15.70;99.90;;;;;;5006078;28;20080;-93
2022/03/31 11:07:26;;;;;;;37.80;7.97;;;15.80;99.90;;;;;;5012023;28;20050;-91
2022/03/31 11:10:09;;;;;;;56.53;10.57;;;15.90;99.90;;;;;;5020117;28;20030;-91
2022/03/31 11:12:36;;;;;;;68.03;9.70;;;15.90;99.90;;;;;;5019941;28;20033;-91
2022/03/31 11:15:16;;;;;;;43.00;9.25;;;15.90;99.90;;;;;;5019747;28;20116;-91
2022/03/31 11:17:44;;;;;;;46.22;8.82;;;15.90;99.90;;;;;;5020119;28;20025;-91
2022/03/31 11:20:28;;;;;;;48.63;8.68;;;15.80;99.90;;;;;;5019672;28;20029;-92
2022/03/31 11:23:12;;;;;;;;;;;15.70;99.90;;;;;;5020160;28;20022;-93
2022/03/31 11:25:43;;;;;;;47.63;9.07;;;15.60;99.90;;;;;;5003418;28;19917;-92
2022/03/31 11:28:12;;;;;;;43.53;10.10;;;15.50;99.90;;;;;;5019882;28;20028;-91
2022/03/31 11:30:40;;;;;;;55.28;10.93;;;15.50;99.90;;;;;;5019287;28;20037;-91
2022/03/31 11:33:10;;;;;;;55.85;9.65;;;15.50;99.90;;;;;;5019466;28;20111;-92
2022/03/31 11:35:37;;;;;;;44.40;9.57;;;15.50;99.90;;;;;;5019770;28;20056;-88
2022/03/31 11:38:09;;;;;;;58.45;9.02;;;15.60;99.90;;;;;;5019606;28;20054;-92
2022/03/31 11:40:48;;;;;;;38.70;9.05;;;15.60;99.90;;;;;;5020461;28;20029;-93
2022/03/31 11:43:17;;;;;;;35.92;8.13;;;15.70;99.90;;;;;;5019299;28;20026;-93
2022/03/31 11:45:49;;;;;;;41.13;7.80;;;15.60;99.90;;;;;;5019238;28;20053;-93
2022/03/31 11:48:20;;;;;;;30.80;6.57;;;15.60;99.90;;;;;;5019739;28;20036;-89
2022/03/31 11:51:03;;;;;;;54.78;8.35;;;15.60;99.90;;;;;;5019435;28;20398;-91
2022/03/31 11:53:32;;;;;;;46.97;9.05;;;15.50;99.90;;;;;;5038367;22;20048;-90
2022/03/31 11:56:09;;;;;;;37.50;8.70;;;15.40;99.90;;;;;;5058859;28;20545;-91
2022/03/31 11:58:45;;;;;;;55.03;10.27;;;15.30;99.90;;;;;;5059004;28;20028;-91
2022/03/31 12:01:11;;;;;;;46.92;9.15;;;15.30;99.90;;;;;;5058775;28;20036;-91
2022/03/31 12:03:39;;;;;;;44.15;9.90;;;15.20;99.90;;;;;;5058523;28;20032;-92
2022/03/31 12:06:06;;;;;;;39.13;7.97;;;15.20;99.90;;;;;;5058671;28;20028;-93
2022/03/31 12:08:34;;;;;;;45.22;8.90;;;15.20;99.90;;;;;;5058702;28;20031;-92
2022/03/31 12:11:01;;;;;;;43.50;10.60;;;15.20;99.90;;;;;;5058787;28;20043;-91
2022/03/31 12:13:28;;;;;;;34.10;8.50;;;15.20;99.90;;;;;;5041900;28;20486;-92
2022/03/31 12:16:06;;;;;;;45.05;7.82;;;15.10;99.90;;;;;;5058703;28;20060;-91
2022/03/31 12:18:35;;;;;;;51.75;9.20;;;15.10;99.90;;;;;;5059168;28;20036;-91
2022/03/31 12:21:07;;;;;;;50.22;11.25;;;14.90;99.90;;;;;;5062700;28;20046;-90
2022/03/31 12:23:44;;;;;;;77.45;11.77;;;14.90;99.90;;;;;;5042834;28;20568;-90
2022/03/31 12:26:21;;;;;;;46.22;9.25;;;14.90;99.90;;;;;;5041959;28;20101;-89
2022/03/31 12:28:51;;;;;;;63.28;7.90;;;15.00;99.90;;;;;;5058327;28;20047;-90
2022/03/31 12:31:31;;;;;;;45.88;7.95;;;15.10;99.90;;;;;;5058543;28;20504;-91
2022/03/31 12:33:58;;;;;;;67.57;12.00;;;14.90;99.90;;;;;;5058223;28;20040;-90
2022/03/31 12:36:27;;;;;;;52.17;11.40;;;15.00;99.90;;;;;;5041620;28;20044;-90
2022/03/31 12:38:56;;;;;;;46.15;8.63;;;15.00;99.90;;;;;;5058022;28;20112;-90
2022/03/31 12:41:24;;;;;;;51.67;8.85;;;15.00;99.90;;;;;;5058254;28;20112;-90
2022/03/31 12:44:16;;;;;;;37.05;8.45;;;14.90;99.90;;;;;;5041353;28;20499;-90
2022/03/31 12:46:53;;;;;;;71.40;9.57;;;14.90;99.90;;;;;;5058164;28;20028;-91
2022/03/31 12:49:25;;;;;;;55.15;9.10;;;14.90;99.90;;;;;;5057978;28;20025;-92
2022/03/31 12:51:59;;;;;;;58.72;9.95;;;15.00;99.90;;;;;;5058118;28;20033;-91
2022/03/31 12:54:35;;;;;;;47.92;9.20;;;15.00;99.90;;;;;;5058205;28;20045;-93
2022/03/31 12:57:07;;;;;;;50.33;9.35;;;15.00;99.90;;;;;;5041461;28;20474;-91
2022/03/31 12:59:35;;;;;;;56.83;10.75;;;14.90;99.90;;;;;;5058311;28;20464;-92
2022/03/31 13:02:07;;;;;;;50.55;11.32;;;14.80;99.90;;;;;;5041300;28;20477;-91